Time;durP1;ratioP1;P1;durP2;ratioP2;P2;SDS_P1;SDS_P2;PMS_P1;PMS_P2;Temp;Humidity;BMP_temperature;BMP_pressure;BME280_temperature;BME280_humidity;BME280_pressure;Samples;Min_cycle;Max_cycle;Signal;HPM_P1;HPM_P2
2020/12/21 00:01:55;;;;;;;10.90;3.00;;;7.00;99.90;;;;;;5035035;28;20516;-66
2020/12/21 00:04:21;;;;;;;13.17;3.23;;;7.20;99.90;;;;;;5035224;28;20188;-67
2020/12/21 00:07:05;;;;;;;10.30;2.80;;;7.20;87.90;;;;;;5034819;28;20812;-67
2020/12/21 00:09:30;;;;;;;10.60;2.77;;;7.10;1.00;;;;;;5036466;28;20492;-66
2020/12/21 00:11:56;;;;;;;7.60;2.80;;;7.10;16.00;;;;;;5019334;28;20954;-67
2020/12/21 00:14:22;;;;;;;9.03;3.00;;;7.10;1.00;;;;;;5037064;28;20590;-66
2020/12/21 00:16:52;;;;;;;7.47;2.67;;;7.20;1.00;;;;;;5035688;28;20175;-67
2020/12/21 00:19:22;;;;;;;3.73;2.00;;;7.10;1.00;;;;;;5035272;28;20154;-67
2020/12/21 00:21:53;;;;;;;8.80;2.77;;;7.00;1.00;;;;;;5035142;28;20389;-67
2020/12/21 00:24:21;;;;;;;8.17;2.90;;;6.90;99.90;;;;;;5034745;28;20482;-67
2020/12/21 00:26:48;;;;;;;5.87;2.37;;;6.80;99.90;;;;;;5034499;28;20405;-67
2020/12/21 00:29:15;;;;;;;7.80;2.60;;;6.80;68.50;;;;;;5035094;28;20412;-67
2020/12/21 00:31:40;;;;;;;7.75;2.40;;;6.80;99.90;;;;;;5034796;28;20195;-67
2020/12/21 00:34:07;;;;;;;9.03;3.30;;;6.80;99.90;;;;;;5034309;28;20265;-67
2020/12/21 00:36:42;;;;;;;10.57;2.90;;;6.80;99.90;;;;;;5034696;28;20158;-67
2020/12/21 00:39:10;;;;;;;6.15;2.20;;;6.80;99.90;;;;;;5034590;28;20165;-66
2020/12/21 00:41:36;;;;;;;7.10;2.83;;;6.80;97.40;;;;;;5034408;28;20508;-67
2020/12/21 00:44:02;;;;;;;6.73;2.30;;;6.80;99.90;;;;;;5034343;28;20332;-67
2020/12/21 00:46:29;;;;;;;8.30;2.75;;;6.70;99.90;;;;;;5034351;28;20432;-67
2020/12/21 00:48:56;;;;;;;7.65;2.58;;;6.40;1.00;;;;;;5034030;28;20281;-67
2020/12/21 00:51:22;;;;;;;6.90;2.72;;;6.50;1.00;;;;;;5034152;28;20200;-67
2020/12/21 00:53:48;;;;;;;9.33;2.77;;;6.50;99.90;;;;;;5034087;28;20650;-67
2020/12/21 00:56:15;;;;;;;6.10;3.38;;;6.60;99.90;;;;;;5033832;28;20162;-67
2020/12/21 00:58:41;;;;;;;7.65;2.63;;;6.50;1.00;;;;;;5033999;28;20534;-68
2020/12/21 01:01:11;;;;;;;9.73;2.88;;;6.60;99.90;;;;;;5033977;28;20224;-67
2020/12/21 01:03:37;;;;;;;9.77;3.30;;;6.50;99.90;;;;;;5033871;28;20174;-67
2020/12/21 01:06:03;;;;;;;10.90;2.40;;;6.90;1.00;;;;;;5033654;28;20639;-67
2020/12/21 01:08:29;;;;;;;7.65;2.60;;;6.50;1.00;;;;;;5033807;28;20421;-67
2020/12/21 01:10:55;;;;;;;9.77;2.07;;;6.60;1.00;;;;;;5033481;28;20169;-67
2020/12/21 01:13:20;;;;;;;7.43;2.53;;;6.60;1.00;;;;;;5033985;28;20173;-67
2020/12/21 01:15:46;;;;;;;6.63;2.37;;;6.50;99.90;;;;;;5033570;28;20182;-66
2020/12/21 01:18:11;;;;;;;10.47;2.33;;;6.50;99.90;;;;;;5033571;28;20300;-67
2020/12/21 01:20:37;;;;;;;5.93;2.10;;;6.60;99.90;;;;;;5034452;28;20669;-67
2020/12/21 01:23:03;;;;;;;6.97;2.80;;;6.60;99.90;;;;;;5034545;28;20674;-66
2020/12/21 01:25:29;;;;;;;7.65;1.83;;;6.50;1.00;;;;;;5034995;28;20197;-67
2020/12/21 01:27:54;;;;;;;8.87;2.10;;;6.60;1.00;;;;;;5034623;28;20208;-67
2020/12/21 01:30:20;;;;;;;8.97;1.87;;;6.60;1.00;;;;;;5033575;28;20228;-67
2020/12/21 01:32:45;;;;;;;8.47;2.90;;;6.40;1.00;;;;;;5033444;28;20647;-67
2020/12/21 01:35:11;;;;;;;6.30;2.55;;;6.40;99.90;;;;;;5033023;28;20651;-67
2020/12/21 01:37:37;;;;;;;5.00;2.17;;;6.40;1.00;;;;;;5033183;28;20201;-67
2020/12/21 01:40:04;;;;;;;7.17;2.50;;;6.50;1.00;;;;;;5033163;28;20178;-67
2020/12/21 01:42:29;;;;;;;6.47;1.85;;;6.60;1.00;;;;;;5033241;28;20610;-67
2020/12/21 01:44:55;;;;;;;12.30;2.43;;;6.60;1.00;;;;;;5033032;28;20196;-67
2020/12/21 01:47:22;;;;;;;7.90;2.73;;;6.70;17.50;;;;;;5033231;28;20669;-66
2020/12/21 01:49:48;;;;;;;2.88;1.50;;;6.80;99.90;;;;;;5032982;28;20200;-67
2020/12/21 01:52:16;;;;;;;6.85;2.33;;;6.90;1.00;;;;;;5033064;28;20196;-67
2020/12/21 01:54:47;;;;;;;3.80;1.80;;;6.80;1.00;;;;;;5033308;28;20193;-67
2020/12/21 01:57:13;;;;;;;5.50;1.55;;;7.00;99.90;;;;;;5032958;28;20169;-67
2020/12/21 01:59:39;;;;;;;10.10;2.35;;;6.90;1.00;;;;;;5032901;28;20703;-67
2020/12/21 02:02:05;;;;;;;5.75;2.75;;;7.10;1.00;;;;;;5033703;28;20614;-67
2020/12/21 02:04:31;;;;;;;3.80;1.90;;;7.40;99.90;;;;;;5032889;28;20189;-66
2020/12/21 02:07:00;;;;;;;8.33;2.00;;;7.50;99.90;;;;;;5032814;28;20470;-67
2020/12/21 02:09:26;;;;;;;7.05;2.08;;;7.50;1.00;;;;;;5033140;28;20177;-66
2020/12/21 02:11:52;;;;;;;5.57;2.25;;;7.50;1.00;;;;;;5033047;28;20165;-67
2020/12/21 02:14:17;;;;;;;6.30;2.07;;;7.40;1.00;;;;;;5032694;28;20197;-67
2020/12/21 02:16:43;;;;;;;5.67;1.70;;;7.50;17.30;;;;;;5032865;28;20177;-67
2020/12/21 02:19:08;;;;;;;6.30;2.10;;;7.60;1.00;;;;;;5033326;28;20244;-67
2020/12/21 02:21:34;;;;;;;5.80;2.10;;;7.80;1.00;;;;;;5032998;28;20197;-67
2020/12/21 02:23:59;;;;;;;3.50;1.87;;;7.60;1.00;;;;;;5035531;28;20198;-67
2020/12/21 02:26:25;;;;;;;5.77;2.37;;;7.70;1.00;;;;;;5036618;28;20170;-67
2020/12/21 02:28:56;;;;;;;4.13;2.40;;;7.80;1.00;;;;;;5036750;28;20201;-67
2020/12/21 02:31:21;;;;;;;7.53;2.00;;;7.60;1.00;;;;;;5036580;28;20239;-67
2020/12/21 02:33:47;;;;;;;7.37;1.60;;;7.60;1.00;;;;;;5036203;28;20189;-67
2020/12/21 02:36:13;;;;;;;7.80;1.93;;;7.70;1.00;;;;;;5036434;28;20216;-67
2020/12/21 02:38:40;;;;;;;4.87;1.80;;;7.70;1.00;;;;;;5036640;28;20197;-67
2020/12/21 02:41:06;;;;;;;4.83;1.93;;;7.70;1.00;;;;;;5036615;28;20808;-66
2020/12/21 02:43:32;;;;;;;4.68;1.85;;;7.80;1.00;;;;;;5036803;28;20416;-67
2020/12/21 02:45:58;;;;;;;6.67;2.10;;;7.80;1.00;;;;;;5037618;28;20258;-67
2020/12/21 02:48:23;;;;;;;7.70;2.70;;;7.80;1.00;;;;;;5037143;28;20199;-66
2020/12/21 02:50:49;;;;;;;3.73;1.97;;;7.80;1.00;;;;;;5036588;28;20562;-66
2020/12/21 02:53:15;;;;;;;4.27;1.70;;;7.80;1.00;;;;;;5036171;28;20541;-65
2020/12/21 02:55:42;;;;;;;9.27;2.50;;;7.90;1.00;;;;;;5035971;28;20189;-65
2020/12/21 02:58:07;;;;;;;9.85;3.03;;;7.90;1.00;;;;;;5036094;28;20197;-65
2020/12/21 03:00:34;;;;;;;7.90;1.90;;;8.00;1.00;;;;;;5036005;28;20639;-66
2020/12/21 03:03:00;;;;;;;8.38;2.22;;;8.00;99.90;;;;;;5036150;28;20416;-66
2020/12/21 03:05:26;;;;;;;7.40;1.90;;;8.00;99.90;;;;;;5036029;28;20201;-67
2020/12/21 03:07:51;;;;;;;7.40;2.43;;;8.00;99.90;;;;;;5035830;28;20276;-66
2020/12/21 03:10:17;;;;;;;3.30;1.90;;;8.00;99.90;;;;;;5035930;28;20174;-66
2020/12/21 03:12:42;;;;;;;4.20;1.40;;;8.00;99.90;;;;;;5036049;28;20223;-65
2020/12/21 03:15:09;;;;;;;4.80;2.07;;;8.00;99.90;;;;;;5035754;28;20186;-66
2020/12/21 03:17:35;;;;;;;8.48;2.40;;;8.00;99.90;;;;;;5035667;28;20165;-65
2020/12/21 03:20:00;;;;;;;5.77;2.10;;;8.10;99.90;;;;;;5035610;28;20261;-66
2020/12/21 03:22:26;;;;;;;6.23;1.90;;;8.10;99.90;;;;;;5035566;28;20184;-66
2020/12/21 03:24:51;;;;;;;6.50;2.43;;;8.20;99.90;;;;;;5035428;28;20197;-66
2020/12/21 03:27:17;;;;;;;10.13;2.20;;;8.30;99.90;;;;;;5035376;28;20292;-65
2020/12/21 03:29:43;;;;;;;8.53;1.93;;;8.30;99.90;;;;;;5035438;28;20705;-67
2020/12/21 03:32:09;;;;;;;8.63;1.83;;;8.40;99.90;;;;;;5035356;28;20666;-67
2020/12/21 03:34:34;;;;;;;6.37;2.07;;;8.40;99.90;;;;;;5034966;28;20229;-67
2020/12/21 03:37:00;;;;;;;6.90;1.80;;;8.30;99.90;;;;;;5035314;28;20416;-66
2020/12/21 03:39:25;;;;;;;9.23;2.43;;;8.10;99.90;;;;;;5035273;28;20184;-66
2020/12/21 03:41:51;;;;;;;7.00;2.30;;;8.10;99.90;;;;;;5035139;28;20284;-66
2020/12/21 03:44:17;;;;;;;10.00;2.13;;;8.10;99.90;;;;;;5035364;28;20228;-66
2020/12/21 03:46:42;;;;;;;5.03;1.77;;;8.10;99.90;;;;;;5035225;28;20384;-66
2020/12/21 03:49:08;;;;;;;5.87;1.60;;;8.20;99.90;;;;;;5035323;28;20209;-67
2020/12/21 03:51:33;;;;;;;7.63;2.20;;;8.20;99.90;;;;;;5035021;28;20519;-65
2020/12/21 03:53:59;;;;;;;11.50;2.47;;;8.20;99.90;;;;;;5035182;28;20228;-66
2020/12/21 03:56:24;;;;;;;6.30;2.03;;;8.20;99.90;;;;;;5035222;28;20601;-67
2020/12/21 03:58:50;;;;;;;4.77;2.10;;;8.20;99.90;;;;;;5035174;28;20201;-66
2020/12/21 04:01:16;;;;;;;5.33;2.07;;;8.00;99.90;;;;;;5035059;28;20198;-67
2020/12/21 04:03:41;;;;;;;7.43;2.00;;;8.10;99.90;;;;;;5034718;28;20592;-66
2020/12/21 04:06:07;;;;;;;9.17;3.10;;;8.10;99.90;;;;;;5034789;28;20169;-66
2020/12/21 04:08:32;;;;;;;8.50;2.40;;;8.20;99.90;;;;;;5034628;28;20263;-65
2020/12/21 04:10:59;;;;;;;8.40;1.90;;;8.20;99.90;;;;;;5034672;28;20204;-66
2020/12/21 04:13:26;;;;;;;11.23;2.10;;;8.20;99.90;;;;;;5034586;28;20170;-67
2020/12/21 04:15:52;;;;;;;6.78;1.92;;;8.10;99.90;;;;;;5035389;28;20257;-66
2020/12/21 04:18:18;;;;;;;5.13;1.75;;;8.00;99.90;;;;;;5034745;28;20201;-67
2020/12/21 04:20:44;;;;;;;6.77;1.70;;;8.00;99.90;;;;;;5034444;28;20198;-67
2020/12/21 04:23:09;;;;;;;6.63;1.50;;;8.00;99.90;;;;;;5034412;28;20211;-67
2020/12/21 04:25:35;;;;;;;9.93;2.10;;;8.00;99.90;;;;;;5034319;28;20212;-67
2020/12/21 04:28:01;;;;;;;6.20;1.43;;;8.10;99.90;;;;;;5034308;28;20198;-67
2020/12/21 04:30:26;;;;;;;2.90;1.77;;;8.00;99.90;;;;;;5034278;28;20171;-67
2020/12/21 04:32:52;;;;;;;6.30;1.50;;;8.10;99.90;;;;;;5034513;28;20174;-67
2020/12/21 04:35:17;;;;;;;4.70;2.10;;;8.20;99.90;;;;;;5033991;28;20209;-67
2020/12/21 04:37:43;;;;;;;6.80;2.17;;;8.10;99.90;;;;;;5034163;28;20170;-67
2020/12/21 04:40:09;;;;;;;2.20;1.40;;;8.00;99.90;;;;;;5034112;28;20467;-67
2020/12/21 04:42:51;;;;;;;7.00;3.60;;;8.00;99.90;;;;;;5034331;28;20166;-67
2020/12/21 04:45:17;;;;;;;3.70;1.55;;;8.00;99.90;;;;;;5033300;28;20540;-67
2020/12/21 04:47:43;;;;;;;6.45;2.17;;;8.10;99.90;;;;;;5034128;28;20197;-67
2020/12/21 04:50:15;;;;;;;7.93;2.33;;;7.90;99.90;;;;;;5034404;28;20174;-66
2020/12/21 04:52:48;;;;;;;9.23;2.40;;;7.70;99.90;;;;;;5034298;28;20778;-67
2020/12/21 04:55:16;;;;;;;11.77;2.03;;;7.70;99.90;;;;;;5033740;28;20523;-67
2020/12/21 04:57:59;;;;;;;10.83;2.57;;;7.80;99.90;;;;;;5033677;28;20410;-68
2020/12/21 05:00:27;;;;;;;5.45;1.45;;;7.90;99.90;;;;;;5033721;28;20380;-68
2020/12/21 05:02:53;;;;;;;7.70;1.98;;;8.00;99.90;;;;;;5033985;28;20252;-68
2020/12/21 05:05:28;;;;;;;8.35;1.75;;;7.90;99.90;;;;;;5033654;28;20209;-67
2020/12/21 05:07:54;;;;;;;6.30;1.73;;;7.90;99.90;;;;;;5033747;28;20196;-68
2020/12/21 05:10:19;;;;;;;5.93;1.57;;;8.00;99.90;;;;;;5033520;28;20163;-68
2020/12/21 05:12:45;;;;;;;6.53;1.50;;;8.10;99.90;;;;;;5033740;28;20194;-68
2020/12/21 05:15:15;;;;;;;6.57;1.97;;;8.10;99.90;;;;;;5033379;28;20189;-68
2020/12/21 05:17:41;;;;;;;4.20;2.03;;;8.10;99.90;;;;;;5016136;28;20607;-68
2020/12/21 05:20:06;;;;;;;6.37;2.20;;;8.20;99.90;;;;;;5033589;28;20444;-68
2020/12/21 05:22:32;;;;;;;5.00;1.77;;;8.20;99.90;;;;;;5033319;28;20200;-68
2020/12/21 05:25:08;;;;;;;5.47;1.93;;;8.20;99.90;;;;;;5033239;28;20197;-68
2020/12/21 05:27:34;;;;;;;7.63;2.00;;;8.20;99.90;;;;;;5033379;28;20665;-68
2020/12/21 05:30:00;;;;;;;5.87;1.50;;;8.20;99.90;;;;;;5033392;28;20412;-68
2020/12/21 05:32:26;;;;;;;8.63;2.53;;;8.20;99.90;;;;;;5033108;28;20409;-68
2020/12/21 05:35:02;;;;;;;3.97;1.77;;;8.20;99.90;;;;;;5063312;22;21686;-66
2020/12/21 05:37:29;;;;;;;6.20;1.52;;;8.20;99.90;;;;;;5067332;28;20184;-66
2020/12/21 05:39:56;;;;;;;9.30;2.20;;;8.10;99.90;;;;;;5069207;28;20184;-66
2020/12/21 05:42:23;;;;;;;5.18;2.05;;;8.10;99.90;;;;;;5069077;28;20407;-66
2020/12/21 05:45:00;;;;;;;11.60;2.17;;;8.10;99.90;;;;;;5067947;28;20642;-65
2020/12/21 05:47:27;;;;;;;8.80;1.98;;;8.10;99.90;;;;;;5069012;28;20196;-66
2020/12/21 05:49:57;;;;;;;3.25;1.48;;;8.20;99.90;;;;;;5068228;28;20172;-65
2020/12/21 05:52:36;;;;;;;5.95;2.05;;;8.20;99.90;;;;;;5066517;28;20549;-66
2020/12/21 05:55:11;;;;;;;8.10;1.70;;;8.20;99.90;;;;;;5067458;28;20193;-65
2020/12/21 05:57:38;;;;;;;18.58;3.03;;;8.30;99.90;;;;;;5066267;28;20176;-65
2020/12/21 06:00:11;;;;;;;4.60;2.00;;;8.30;99.90;;;;;;5065628;28;20166;-66
2020/12/21 06:02:37;;;;;;;10.23;1.63;;;8.30;99.90;;;;;;5065876;28;20403;-66
2020/12/21 06:05:06;;;;;;;8.00;2.40;;;8.30;99.90;;;;;;5067056;28;20216;-66
2020/12/21 06:07:33;;;;;;;5.30;1.75;;;8.30;99.90;;;;;;5067466;28;20190;-66
2020/12/21 06:10:01;;;;;;;7.90;1.70;;;8.30;99.90;;;;;;5066892;28;20165;-66
2020/12/21 06:12:31;;;;;;;6.70;2.20;;;8.30;99.90;;;;;;5067341;28;20412;-66
2020/12/21 06:15:02;;;;;;;13.43;3.40;;;8.30;99.90;;;;;;5066256;28;20471;-66
2020/12/21 06:17:29;;;;;;;4.45;2.20;;;8.30;99.90;;;;;;5068410;28;20396;-66
2020/12/21 06:20:06;;;;;;;9.20;1.92;;;8.20;99.90;;;;;;5072144;28;20168;-66
2020/12/21 06:22:31;;;;;;;6.15;1.33;;;8.00;99.90;;;;;;5071292;28;20180;-65
2020/12/21 06:24:57;;;;;;;11.17;2.53;;;8.20;99.90;;;;;;5068479;28;20197;-65
2020/12/21 06:27:23;;;;;;;7.70;2.60;;;8.10;99.90;;;;;;5066335;28;20203;-65
2020/12/21 06:29:58;;;;;;;11.77;2.20;;;8.20;99.90;;;;;;5069345;28;20173;-65
2020/12/21 06:32:31;;;;;;;4.78;2.40;;;8.20;99.90;;;;;;5069183;28;20157;-65
2020/12/21 06:34:56;;;;;;;11.23;2.00;;;8.20;99.90;;;;;;5068027;28;20243;-65
2020/12/21 06:37:22;;;;;;;3.93;1.70;;;8.30;99.90;;;;;;5070049;28;20166;-65
2020/12/21 06:40:03;;;;;;;14.50;1.83;;;8.20;99.90;;;;;;5071818;28;20233;-65
2020/12/21 06:42:29;;;;;;;8.25;2.67;;;8.20;99.90;;;;;;5071367;28;20172;-66
2020/12/21 06:44:55;;;;;;;8.73;2.30;;;8.20;99.90;;;;;;5069504;28;20538;-66
2020/12/21 06:47:23;;;;;;;6.63;1.73;;;8.10;99.90;;;;;;5070251;28;20227;-66
2020/12/21 06:49:49;;;;;;;13.45;2.80;;;7.90;99.90;;;;;;5071221;28;20416;-65
2020/12/21 06:52:15;;;;;;;9.15;1.70;;;8.20;99.90;;;;;;5070241;28;20166;-66
2020/12/21 06:54:40;;;;;;;13.60;2.20;;;8.30;99.90;;;;;;5069497;28;20196;-65
2020/12/21 06:57:06;;;;;;;8.93;2.23;;;8.30;99.90;;;;;;5069615;28;20500;-65
2020/12/21 06:59:32;;;;;;;7.07;2.37;;;8.30;99.90;;;;;;5069960;28;20177;-66
2020/12/21 07:01:58;;;;;;;4.90;1.83;;;8.30;99.90;;;;;;5068422;28;20407;-65
2020/12/21 07:04:25;;;;;;;13.47;2.23;;;8.30;99.90;;;;;;5067306;28;20161;-65
2020/12/21 07:06:52;;;;;;;4.00;1.73;;;8.30;99.90;;;;;;5067833;28;20638;-65
2020/12/21 07:09:37;;;;;;;20.45;2.55;;;8.40;99.90;;;;;;5070734;28;20169;-65
2020/12/21 07:12:05;;;;;;;4.80;1.80;;;8.40;99.90;;;;;;5072502;28;20168;-66
2020/12/21 07:14:37;;;;;;;5.78;2.47;;;8.30;99.90;;;;;;5072027;28;20426;-66
2020/12/21 07:17:13;;;;;;;9.27;1.60;;;8.40;99.90;;;;;;5072973;28;20151;-65
2020/12/21 07:19:42;;;;;;;6.82;1.80;;;8.40;99.90;;;;;;5071515;28;20188;-65
2020/12/21 07:22:09;;;;;;;3.65;1.77;;;8.40;99.90;;;;;;5073279;28;20200;-65
2020/12/21 07:24:37;;;;;;;5.70;1.75;;;8.40;99.90;;;;;;5073290;28;20588;-65
2020/12/21 07:27:03;;;;;;;8.95;1.83;;;8.30;99.90;;;;;;5073627;28;20169;-65
2020/12/21 07:29:34;;;;;;;10.02;2.40;;;8.40;99.90;;;;;;5072129;28;20165;-65
2020/12/21 07:32:00;;;;;;;7.40;1.70;;;8.50;99.90;;;;;;5072745;28;20266;-65
2020/12/21 07:34:25;;;;;;;6.73;2.20;;;8.50;99.90;;;;;;5074084;28;20195;-65
2020/12/21 07:36:51;;;;;;;9.23;2.63;;;8.40;99.90;;;;;;5073454;28;20459;-66
2020/12/21 07:39:18;;;;;;;9.63;2.10;;;8.50;99.90;;;;;;5074190;28;20170;-65
2020/12/21 07:41:46;;;;;;;6.10;1.98;;;8.50;99.90;;;;;;5074751;28;20219;-66
2020/12/21 07:44:19;;;;;;;10.50;2.10;;;8.50;99.90;;;;;;5073852;28;20361;-65
2020/12/21 07:47:18;;;;;;;10.00;2.83;;;8.50;99.90;;;;;;5072891;28;20242;-66
2020/12/21 07:49:44;;;;;;;6.10;2.20;;;8.50;99.90;;;;;;5050854;28;20185;-66
2020/12/21 07:52:10;;;;;;;6.03;1.93;;;8.50;99.90;;;;;;5073879;28;20179;-65
2020/12/21 07:54:43;;;;;;;3.60;2.10;;;8.50;99.90;;;;;;5073369;28;20375;-65
2020/12/21 07:57:11;;;;;;;11.93;2.58;;;8.50;99.90;;;;;;5071968;28;20181;-65
2020/12/21 07:59:37;;;;;;;14.80;2.80;;;8.50;99.90;;;;;;5074273;28;20206;-66
2020/12/21 08:02:05;;;;;;;6.43;2.37;;;8.60;99.90;;;;;;5070711;28;20180;-65
2020/12/21 08:04:30;;;;;;;6.03;1.60;;;8.60;99.90;;;;;;5070302;28;20173;-65
2020/12/21 08:07:06;;;;;;;8.67;2.70;;;8.60;99.90;;;;;;5070834;28;20607;-65
2020/12/21 08:09:32;;;;;;;8.82;2.38;;;8.60;99.90;;;;;;5070796;28;20381;-65
2020/12/21 08:11:59;;;;;;;6.72;2.00;;;8.60;99.90;;;;;;5070695;28;20255;-65
2020/12/21 08:14:25;;;;;;;7.80;1.98;;;8.50;99.90;;;;;;5069344;28;20207;-65
2020/12/21 08:16:50;;;;;;;7.00;2.40;;;8.50;99.90;;;;;;5068991;28;20189;-65
2020/12/21 08:19:22;;;;;;;7.60;2.33;;;8.70;99.90;;;;;;5071052;28;20179;-65
2020/12/21 08:21:49;;;;;;;4.27;1.60;;;8.70;99.90;;;;;;5068553;28;20154;-65
2020/12/21 08:24:15;;;;;;;9.23;1.83;;;8.70;99.90;;;;;;5069102;28;20403;-65
2020/12/21 08:26:40;;;;;;;13.32;2.80;;;8.80;99.90;;;;;;5068241;28;20188;-65
2020/12/21 08:29:06;;;;;;;10.07;1.80;;;8.80;99.90;;;;;;5070150;28;20217;-65
2020/12/21 08:31:41;;;;;;;7.20;1.93;;;8.80;99.90;;;;;;5069875;28;20286;-65
2020/12/21 08:34:07;;;;;;;9.52;2.45;;;8.80;99.90;;;;;;5070513;28;20152;-65
2020/12/21 08:36:35;;;;;;;6.10;2.10;;;8.80;99.90;;;;;;5068393;28;20236;-65
2020/12/21 08:39:10;;;;;;;6.50;1.60;;;8.80;99.90;;;;;;5070186;28;20177;-65
2020/12/21 08:41:55;;;;;;;7.15;1.75;;;8.90;99.90;;;;;;5061822;28;20435;-64
2020/12/21 08:44:23;;;;;;;9.82;2.03;;;9.10;99.90;;;;;;5055148;28;20232;-65
2020/12/21 08:46:54;;;;;;;7.50;1.70;;;9.00;99.90;;;;;;5054388;28;20197;-65
2020/12/21 08:49:20;;;;;;;11.60;2.47;;;9.20;99.90;;;;;;5054572;28;20498;-65
2020/12/21 08:51:47;;;;;;;7.13;2.50;;;9.20;99.90;;;;;;5054945;28;20404;-65
2020/12/21 08:54:13;;;;;;;9.57;2.65;;;9.00;99.90;;;;;;5056338;28;20412;-66
2020/12/21 08:56:38;;;;;;;3.53;1.73;;;9.10;99.90;;;;;;5052412;28;20690;-64
2020/12/21 08:59:04;;;;;;;6.80;2.00;;;9.40;9.80;;;;;;5054802;28;20167;-65
2020/12/21 09:01:29;;;;;;;7.50;1.40;;;9.20;99.90;;;;;;5054728;28;20185;-68
2020/12/21 09:03:55;;;;;;;3.23;1.73;;;9.10;99.90;;;;;;5053429;28;20172;-64
2020/12/21 09:06:23;;;;;;;3.77;1.80;;;9.00;99.90;;;;;;5053363;28;20502;-67
2020/12/21 09:08:50;;;;;;;4.13;1.52;;;9.00;99.90;;;;;;5053489;28;20262;-67
2020/12/21 09:11:19;;;;;;;8.15;1.80;;;9.00;99.90;;;;;;5054089;28;20168;-68
2020/12/21 09:13:45;;;;;;;10.40;2.15;;;9.00;99.90;;;;;;5054100;28;20166;-68
2020/12/21 09:16:11;;;;;;;5.57;1.63;;;9.00;99.90;;;;;;5053842;28;20189;-67
2020/12/21 09:18:36;;;;;;;4.20;1.50;;;9.00;99.90;;;;;;5053206;28;20665;-65
2020/12/21 09:21:03;;;;;;;7.37;1.80;;;9.10;99.90;;;;;;5053579;28;20191;-65
2020/12/21 09:23:29;;;;;;;14.85;2.00;;;9.00;99.90;;;;;;5053349;28;20177;-65
2020/12/21 09:25:54;;;;;;;4.70;2.38;;;9.00;99.90;;;;;;5052973;28;20196;-65
2020/12/21 09:28:20;;;;;;;7.03;2.23;;;9.10;99.90;;;;;;5053117;28;20202;-65
2020/12/21 09:30:46;;;;;;;5.37;1.77;;;9.00;99.90;;;;;;5053282;28;20214;-67
2020/12/21 09:33:11;;;;;;;12.90;1.80;;;9.00;99.90;;;;;;5052917;28;20163;-66
2020/12/21 09:35:37;;;;;;;7.23;1.67;;;9.00;99.90;;;;;;5054493;28;20196;-67
2020/12/21 09:38:02;;;;;;;6.37;2.33;;;9.20;99.90;;;;;;5053944;28;20226;-66
2020/12/21 09:40:28;;;;;;;12.60;2.10;;;9.40;99.90;;;;;;5053244;28;20168;-66
2020/12/21 09:42:53;;;;;;;6.03;2.10;;;9.40;99.90;;;;;;5053094;28;20177;-68
2020/12/21 09:45:19;;;;;;;9.07;1.80;;;9.30;99.90;;;;;;5052921;28;20218;-66
2020/12/21 09:47:45;;;;;;;4.43;1.40;;;9.20;99.90;;;;;;5052683;28;20201;-66
2020/12/21 09:50:11;;;;;;;6.10;1.85;;;9.30;99.90;;;;;;5053144;28;20172;-65
2020/12/21 09:52:37;;;;;;;3.77;1.87;;;9.20;99.90;;;;;;5053013;28;20534;-67
2020/12/21 09:55:03;;;;;;;8.50;1.90;;;9.30;99.90;;;;;;5053558;28;20433;-67
2020/12/21 09:57:29;;;;;;;8.87;2.03;;;9.40;99.90;;;;;;5053076;28;20169;-66
2020/12/21 09:59:54;;;;;;;6.40;1.93;;;9.30;99.90;;;;;;5053392;28;20180;-66
2020/12/21 10:02:20;;;;;;;9.00;2.77;;;9.20;99.90;;;;;;5052880;28;20469;-66
2020/12/21 10:04:45;;;;;;;5.57;2.17;;;9.30;99.90;;;;;;5052642;28;20651;-66
2020/12/21 10:07:11;;;;;;;8.23;2.80;;;9.40;99.90;;;;;;5052666;28;20265;-66
2020/12/21 10:09:36;;;;;;;11.60;2.27;;;9.30;99.90;;;;;;5052626;28;20165;-66
2020/12/21 10:12:02;;;;;;;7.17;3.30;;;9.40;99.90;;;;;;5052707;28;20165;-66
2020/12/21 10:14:28;;;;;;;6.10;2.50;;;9.60;99.90;;;;;;5052737;28;20169;-65
2020/12/21 10:16:54;;;;;;;9.13;2.90;;;9.50;99.90;;;;;;5052765;28;20204;-65
2020/12/21 10:19:19;;;;;;;6.83;2.80;;;9.40;99.90;;;;;;5053106;28;20187;-65
2020/12/21 10:21:46;;;;;;;15.57;2.87;;;9.60;99.90;;;;;;5052711;28;20415;-66
2020/12/21 10:24:11;;;;;;;5.63;2.28;;;9.60;99.90;;;;;;5052995;28;20506;-66
2020/12/21 10:26:40;;;;;;;6.00;2.23;;;9.50;99.90;;;;;;5052841;28;20197;-66
2020/12/21 10:29:06;;;;;;;8.33;2.33;;;9.50;99.90;;;;;;5052609;28;20677;-66
2020/12/21 10:31:32;;;;;;;3.90;2.53;;;9.60;99.90;;;;;;5052420;28;20405;-67
2020/12/21 10:33:57;;;;;;;8.83;2.87;;;9.60;99.90;;;;;;5052573;28;20163;-67
2020/12/21 10:36:23;;;;;;;6.37;2.67;;;9.50;99.90;;;;;;5052089;28;20252;-67
2020/12/21 10:38:49;;;;;;;11.43;2.50;;;9.50;99.90;;;;;;5052649;28;20174;-67
2020/12/21 10:41:16;;;;;;;11.85;2.53;;;9.60;99.90;;;;;;5052670;28;20415;-67
2020/12/21 10:43:42;;;;;;;7.57;3.53;;;9.70;99.90;;;;;;5053070;28;20182;-67
2020/12/21 10:46:07;;;;;;;9.23;3.20;;;9.80;99.90;;;;;;5056562;28;20427;-67
2020/12/21 10:48:33;;;;;;;9.50;4.77;;;9.80;99.90;;;;;;5056350;28;20263;-67
2020/12/21 10:50:58;;;;;;;7.83;3.33;;;9.80;99.90;;;;;;5056680;28;20337;-66
2020/12/21 10:53:24;;;;;;;5.00;2.30;;;10.00;99.90;;;;;;5056515;28;20169;-67
2020/12/21 10:55:49;;;;;;;7.03;2.97;;;9.90;99.90;;;;;;5057079;28;20196;-66
2020/12/21 10:58:15;;;;;;;6.30;2.30;;;9.90;99.90;;;;;;5056245;28;20180;-66
2020/12/21 11:00:41;;;;;;;6.90;2.27;;;10.00;99.90;;;;;;5055963;28;20177;-66
2020/12/21 11:03:06;;;;;;;8.50;3.43;;;10.00;99.90;;;;;;5056008;28;20165;-66
2020/12/21 11:05:32;;;;;;;7.00;2.57;;;10.10;99.90;;;;;;5056203;28;20190;-67
2020/12/21 11:07:57;;;;;;;6.27;2.77;;;10.10;99.90;;;;;;5056128;28;20198;-66
2020/12/21 11:10:23;;;;;;;6.90;2.90;;;10.10;99.90;;;;;;5056148;28;20271;-66
2020/12/21 11:12:49;;;;;;;4.90;2.53;;;10.00;99.90;;;;;;5056566;28;20573;-66
2020/12/21 11:15:14;;;;;;;6.13;3.03;;;10.00;99.90;;;;;;5056643;28;20663;-66
2020/12/21 11:17:40;;;;;;;4.93;2.87;;;9.80;99.90;;;;;;5056020;28;20188;-66
2020/12/21 11:20:05;;;;;;;8.00;2.87;;;9.90;99.90;;;;;;5055691;28;20227;-66
2020/12/21 11:22:31;;;;;;;7.10;4.00;;;9.90;99.90;;;;;;5055643;28;20530;-66
2020/12/21 11:24:56;;;;;;;8.70;3.17;;;9.90;99.90;;;;;;5055366;28;20706;-66
2020/12/21 11:27:22;;;;;;;6.10;3.60;;;9.80;99.90;;;;;;5055088;28;20188;-66
2020/12/21 11:29:48;;;;;;;6.07;2.90;;;9.80;99.90;;;;;;5055293;28;20170;-66
2020/12/21 11:32:13;;;;;;;10.50;3.17;;;9.80;99.90;;;;;;5055303;28;20412;-66
2020/12/21 11:34:39;;;;;;;12.10;3.97;;;9.90;1.00;;;;;;5055026;28;20189;-66
2020/12/21 11:37:04;;;;;;;9.00;2.83;;;9.90;1.00;;;;;;5080709;22;20685;-65
2020/12/21 11:39:30;;;;;;;8.93;3.90;;;9.90;1.00;;;;;;5055045;28;20165;-66
2020/12/21 11:41:56;;;;;;;10.97;4.07;;;9.90;1.00;;;;;;5055051;28;20196;-66
2020/12/21 11:44:21;;;;;;;12.33;3.93;;;9.80;1.00;;;;;;5055115;28;20176;-67
2020/12/21 11:46:47;;;;;;;8.50;4.10;;;10.00;1.00;;;;;;5055114;28;20264;-66
2020/12/21 11:49:12;;;;;;;9.57;3.87;;;10.00;1.00;;;;;;5054827;28;20192;-66
2020/12/21 11:51:38;;;;;;;8.43;3.57;;;10.00;1.00;;;;;;5054871;28;20190;-68
2020/12/21 11:54:04;;;;;;;8.27;3.33;;;10.00;99.90;;;;;;5055473;28;20202;-66
2020/12/21 11:56:29;;;;;;;10.17;3.10;;;10.00;99.90;;;;;;5053198;28;20188;-66
2020/12/21 11:58:55;;;;;;;7.40;3.30;;;10.10;99.90;;;;;;5054953;28;20653;-66
2020/12/21 12:01:20;;;;;;;3.93;2.93;;;10.00;99.90;;;;;;5054582;28;20169;-66
2020/12/21 12:03:46;;;;;;;5.37;3.67;;;10.00;99.90;;;;;;5054823;28;20286;-67
2020/12/21 12:06:12;;;;;;;5.17;3.73;;;10.10;99.90;;;;;;5055360;28;20201;-67
2020/12/21 12:08:38;;;;;;;7.20;3.00;;;10.20;99.90;;;;;;5054641;28;20280;-66
2020/12/21 12:11:06;;;;;;;6.20;3.20;;;10.20;99.90;;;;;;5055081;28;20465;-66
2020/12/21 12:13:32;;;;;;;7.90;2.80;;;10.10;99.90;;;;;;5054832;28;20173;-66
2020/12/21 12:15:57;;;;;;;4.93;2.77;;;10.10;99.90;;;;;;5054726;28;20778;-66
2020/12/21 12:18:23;;;;;;;6.63;3.10;;;10.00;99.90;;;;;;5055325;28;20407;-67
2020/12/21 12:20:49;;;;;;;5.80;2.10;;;10.00;99.90;;;;;;5054441;28;20169;-65
2020/12/21 12:23:14;;;;;;;6.20;3.57;;;10.10;99.90;;;;;;5055816;28;20252;-67
2020/12/21 12:25:40;;;;;;;7.40;3.37;;;10.00;99.90;;;;;;5054640;28;20194;-66
2020/12/21 12:28:06;;;;;;;6.50;3.10;;;10.00;99.90;;;;;;5054690;28;20436;-66
2020/12/21 12:30:31;;;;;;;4.87;2.27;;;9.90;99.90;;;;;;5056077;28;20170;-67
2020/12/21 12:32:57;;;;;;;5.80;2.47;;;9.90;99.90;;;;;;5059989;28;20220;-68
2020/12/21 12:35:23;;;;;;;7.13;3.60;;;9.90;1.00;;;;;;5055712;28;20165;-67
2020/12/21 12:37:48;;;;;;;6.83;3.10;;;9.90;1.00;;;;;;5054932;28;20632;-68
2020/12/21 12:40:14;;;;;;;4.73;2.43;;;9.90;1.00;;;;;;5054561;28;20253;-67
2020/12/21 12:42:39;;;;;;;6.87;2.87;;;9.90;1.00;;;;;;5054332;28;20172;-67
2020/12/21 12:45:08;;;;;;;9.43;3.10;;;9.90;1.00;;;;;;5054297;28;20542;-67
2020/12/21 12:47:33;;;;;;;8.30;3.37;;;9.80;1.00;;;;;;5053994;28;20203;-67
2020/12/21 12:49:59;;;;;;;10.47;2.87;;;9.90;1.00;;;;;;5052669;28;21051;-67
2020/12/21 12:52:24;;;;;;;8.50;4.30;;;9.80;1.00;;;;;;5054375;28;20165;-67
2020/12/21 12:54:50;;;;;;;7.40;5.33;;;9.80;1.00;;;;;;5053947;28;20170;-67
2020/12/21 12:57:16;;;;;;;4.73;3.67;;;9.80;99.90;;;;;;5054297;28;20228;-67